createdAt,value
2018-07-04T00:00:40.195Z,98640.66
2018-07-04T00:03:20.602Z,98637.19
2018-07-04T00:06:01.012Z,98637.23
2018-07-04T00:08:41.582Z,98638.64
2018-07-04T00:11:22.441Z,98642.70
2018-07-04T00:14:02.744Z,98646.73
2018-07-04T00:16:43.004Z,98645.13
2018-07-04T00:19:23.370Z,98642.97
2018-07-04T00:22:03.620Z,98648.88
2018-07-04T00:24:43.900Z,98648.92
2018-07-04T00:27:24.100Z,98647.33
2018-07-04T00:30:04.346Z,98653.25
2018-07-04T00:32:44.701Z,98652.14
2018-07-04T00:35:25.100Z,98650.02
2018-07-04T00:38:05.606Z,98647.33
2018-07-04T00:40:45.886Z,98650.53
2018-07-04T00:43:26.197Z,98652.69
2018-07-04T00:46:06.477Z,98652.95
2018-07-04T00:48:46.711Z,98654.84
2018-07-04T00:51:27.015Z,98649.77
2018-07-04T00:54:07.199Z,98651.68
2018-07-04T00:56:47.489Z,98650.09
2018-07-04T00:59:27.957Z,98647.95
2018-07-04T01:02:08.267Z,98651.17
2018-07-04T01:04:48.518Z,98648.25
2018-07-04T01:07:28.841Z,98646.63
2018-07-04T01:10:09.141Z,98647.44
2018-07-04T01:12:49.445Z,98650.91
2018-07-04T01:15:29.801Z,98646.36
2018-07-04T01:18:10.206Z,98641.81
2018-07-04T01:20:55.740Z,98647.19
2018-07-04T01:23:37.670Z,98637.00
2018-07-04T01:26:17.943Z,98635.91
2018-07-04T01:28:58.182Z,98636.45
2018-07-04T01:31:38.342Z,98639.17
2018-07-04T01:34:18.622Z,98635.44
2018-07-04T01:36:59.075Z,98633.55
2018-07-04T01:39:39.358Z,98636.26
2018-07-04T01:42:19.610Z,98632.78
2018-07-04T01:44:59.763Z,98629.30
2018-07-04T01:47:40.038Z,98626.35
2018-07-04T01:50:20.359Z,98629.86
2018-07-04T01:53:00.752Z,98628.81
2018-07-04T01:55:41.031Z,98624.23
2018-07-04T01:58:21.450Z,98627.20
2018-07-04T02:01:01.888Z,98624.52
2018-07-04T02:03:42.227Z,98624.80
2018-07-04T02:06:22.564Z,98624.28
2018-07-04T02:09:02.964Z,98631.52
2018-07-04T02:11:43.328Z,98621.33
2018-07-04T02:14:23.825Z,98625.07
2018-07-04T02:17:05.109Z,98630.45
2018-07-04T02:19:45.304Z,98629.36
2018-07-04T02:22:25.559Z,98619.70
2018-07-04T02:25:06.103Z,98618.93
2018-07-04T02:27:46.389Z,98625.89
2018-07-04T02:30:26.581Z,98624.55
2018-07-04T02:33:07.021Z,98634.47
2018-07-04T02:35:47.269Z,98631.26
2018-07-04T02:38:27.638Z,98640.37
2018-07-04T02:41:07.937Z,98638.21
2018-07-04T02:43:48.399Z,98632.33
2018-07-04T02:46:34.118Z,98638.21
2018-07-04T02:49:14.326Z,98637.68
2018-07-04T02:51:54.618Z,98639.83
2018-07-04T02:54:34.712Z,98643.32
2018-07-04T02:57:14.925Z,98641.17
2018-07-04T02:59:55.277Z,98637.14
2018-07-04T03:02:35.694Z,98636.89
2018-07-04T03:05:15.910Z,98639.04
2018-07-04T03:07:56.228Z,98631.80
2018-07-04T03:10:36.686Z,98627.77
2018-07-04T03:13:16.874Z,98634.19
2018-07-04T03:15:57.245Z,98622.67
2018-07-04T03:18:37.608Z,98628.03
2018-07-04T03:21:17.954Z,98627.75
2018-07-04T03:23:58.429Z,98627.22
2018-07-04T03:26:38.779Z,98638.47
2018-07-04T03:29:19.104Z,98636.59
2018-07-04T03:31:59.347Z,98639.30
2018-07-04T03:34:39.545Z,98637.94
2018-07-04T03:37:19.935Z,98636.59
2018-07-04T03:40:00.863Z,98635.50
2018-07-04T03:42:41.082Z,98637.64
2018-07-04T03:45:21.439Z,98636.59
2018-07-04T03:48:01.715Z,98635.25
2018-07-04T03:50:41.909Z,98636.83
2018-07-04T03:53:22.288Z,98634.94
2018-07-04T03:56:02.506Z,98638.42
2018-07-04T03:58:42.803Z,98641.38
2018-07-04T04:01:23.230Z,98639.23
2018-07-04T04:04:04.350Z,98639.23
2018-07-04T04:06:44.589Z,98636.23
2018-07-04T04:09:25.099Z,98635.95
2018-07-04T04:12:05.388Z,98641.58
2018-07-04T04:14:45.736Z,98648.00
2018-07-04T04:17:26.106Z,98646.63
2018-07-04T04:20:06.450Z,98650.91
2018-07-04T04:22:46.881Z,98653.35
2018-07-04T04:25:27.134Z,98652.79
2018-07-04T04:28:07.490Z,98652.48
2018-07-04T04:30:47.684Z,98655.16
2018-07-04T04:33:28.104Z,98655.41
2018-07-04T04:36:08.297Z,98659.91
2018-07-04T04:38:48.673Z,98655.05
2018-07-04T04:41:29.005Z,98662.26
2018-07-04T04:44:09.351Z,98662.22
2018-07-04T04:46:50.000Z,98663.08
2018-07-04T04:49:30.268Z,98660.36
2018-07-04T04:52:10.536Z,98661.11
2018-07-04T04:54:50.895Z,98666.96
2018-07-04T04:57:31.097Z,98664.94
2018-07-04T05:00:11.364Z,98662.64
2018-07-04T05:02:51.674Z,98674.32
2018-07-04T05:05:31.936Z,98663.42
2018-07-04T05:08:12.193Z,98669.75
2018-07-04T05:10:52.701Z,98669.90
2018-07-04T05:13:32.869Z,98670.56
2018-07-04T05:16:13.228Z,98677.41
2018-07-04T05:18:53.541Z,98679.16
2018-07-04T05:21:33.842Z,98679.33
2018-07-04T05:24:14.298Z,98684.92
2018-07-04T05:26:54.526Z,98682.66
2018-07-04T05:29:35.380Z,98678.27
2018-07-04T05:32:15.754Z,98679.62
2018-07-04T05:34:56.020Z,98683.28
2018-07-04T05:37:36.384Z,98684.59
2018-07-04T05:40:17.664Z,98678.97
2018-07-04T05:42:58.010Z,98684.86
2018-07-04T05:45:38.353Z,98682.83
2018-07-04T05:48:18.863Z,98685.09
2018-07-04T05:50:59.330Z,98675.13
2018-07-04T05:53:39.551Z,98674.86
2018-07-04T05:56:20.077Z,98668.69
2018-07-04T05:59:00.377Z,98670.38
2018-07-04T06:01:40.611Z,98667.61
2018-07-04T06:04:21.041Z,98671.09
2018-07-04T06:07:01.376Z,98668.89
2018-07-04T06:09:41.845Z,98661.48
2018-07-04T06:12:23.983Z,98659.52
2018-07-04T06:15:04.313Z,98662.84
2018-07-04T06:17:44.610Z,98662.89
2018-07-04T06:20:24.953Z,98659.66
2018-07-04T06:23:07.129Z,98657.34
2018-07-04T06:25:47.421Z,98658.63
2018-07-04T06:28:27.775Z,98662.31
2018-07-04T06:31:08.205Z,98657.73
2018-07-04T06:33:48.546Z,98655.68
2018-07-04T06:36:29.072Z,98652.10
2018-07-04T06:38:56.972Z,98656.14
2018-07-04T06:41:24.913Z,98654.38
2018-07-04T06:43:52.843Z,98648.45
2018-07-04T06:46:20.797Z,98654.97
2018-07-04T06:48:48.716Z,98652.05
2018-07-04T06:51:16.658Z,98650.58
2018-07-04T06:53:44.590Z,98649.06
2018-07-04T06:56:12.506Z,98643.64
2018-07-04T06:58:40.473Z,98648.59
2018-07-04T07:01:08.386Z,98648.61
2018-07-04T07:03:48.685Z,98649.51
2018-07-04T07:06:28.994Z,98655.89
2018-07-04T07:09:09.168Z,98651.78
2018-07-04T07:11:49.520Z,98653.38
2018-07-04T07:14:29.769Z,98651.95
2018-07-04T07:17:10.045Z,98648.23
2018-07-04T07:19:50.253Z,98653.64
2018-07-04T07:22:30.572Z,98645.53
2018-07-04T07:25:10.934Z,98648.96
2018-07-04T07:27:51.833Z,98646.95
2018-07-04T07:30:32.150Z,98642.21
2018-07-04T07:33:12.526Z,98644.28
2018-07-04T07:35:52.852Z,98639.30
2018-07-04T07:38:33.134Z,98641.00
2018-07-04T07:41:13.425Z,98639.50
2018-07-04T07:43:53.767Z,98632.59
2018-07-04T07:46:34.153Z,98635.69
2018-07-04T07:49:14.398Z,98640.03
2018-07-04T07:51:54.773Z,98633.73
2018-07-04T07:54:35.181Z,98630.24
2018-07-04T07:57:15.557Z,98628.47
2018-07-04T07:59:55.777Z,98630.98
2018-07-04T08:02:36.089Z,98628.94
2018-07-04T08:05:16.405Z,98629.37
2018-07-04T08:07:56.913Z,98629.36
2018-07-04T08:10:37.221Z,98624.59
2018-07-04T08:13:17.609Z,98626.06
2018-07-04T08:15:58.095Z,98620.87
2018-07-04T08:18:38.369Z,98621.90
2018-07-04T08:21:18.669Z,98619.63
2018-07-04T08:23:59.103Z,98617.33
2018-07-04T08:26:39.353Z,98615.27
2018-07-04T08:29:19.657Z,98619.10
2018-07-04T08:31:59.819Z,98615.43
2018-07-04T08:34:41.650Z,98614.28
2018-07-04T08:37:22.108Z,98615.58
2018-07-04T08:40:02.478Z,98618.72
2018-07-04T08:42:42.785Z,98622.25
2018-07-04T08:45:23.112Z,98614.52
2018-07-04T08:48:03.460Z,98614.95
2018-07-04T08:50:43.985Z,98611.14
2018-07-04T08:53:24.446Z,98615.05
2018-07-04T08:56:05.173Z,98609.16
2018-07-04T08:58:45.320Z,98612.97
2018-07-04T09:01:25.888Z,98610.29
2018-07-04T09:04:06.372Z,98606.69
2018-07-04T09:06:46.577Z,98608.56
2018-07-04T09:09:26.809Z,98606.98
2018-07-04T09:12:07.305Z,98600.49
2018-07-04T09:14:48.785Z,98607.20
2018-07-04T09:17:29.051Z,98608.42
2018-07-04T09:20:09.369Z,98606.98
2018-07-04T09:22:49.841Z,98602.00
2018-07-04T09:25:30.785Z,98600.64
2018-07-04T09:28:11.144Z,98605.84
2018-07-04T09:30:51.510Z,98609.02
2018-07-04T09:33:31.724Z,98602.16
2018-07-04T09:36:11.878Z,98595.18
2018-07-04T09:38:52.281Z,98601.04
2018-07-04T09:41:32.753Z,98596.29
2018-07-04T09:44:13.095Z,98600.06
2018-07-04T09:46:53.416Z,98594.23
2018-07-04T09:49:34.024Z,98593.23
2018-07-04T09:52:14.252Z,98591.25
2018-07-04T09:54:54.745Z,98597.02
2018-07-04T09:57:35.802Z,98597.02
2018-07-04T10:00:19.865Z,98592.88
2018-07-04T10:03:00.284Z,98594.53
2018-07-04T10:05:40.736Z,98587.52
2018-07-04T10:08:20.993Z,98590.93
2018-07-04T10:11:01.446Z,98588.63
2018-07-04T10:13:41.726Z,98584.30
2018-07-04T10:16:21.953Z,98583.13
2018-07-04T10:19:02.431Z,98579.70
2018-07-04T10:21:42.817Z,98578.73
2018-07-04T10:24:23.313Z,98571.70
2018-07-04T10:27:03.537Z,98568.39
2018-07-04T10:29:43.754Z,98572.32
2018-07-04T10:32:24.137Z,98568.98
2018-07-04T10:35:04.504Z,98562.27
2018-07-04T10:37:45.156Z,98565.92
2018-07-04T10:40:25.466Z,98557.13
2018-07-04T10:43:05.873Z,98554.71
2018-07-04T10:45:46.192Z,98549.08
2018-07-04T10:48:26.916Z,98552.42
2018-07-04T10:51:07.361Z,98556.30
2018-07-04T10:53:47.804Z,98553.55
2018-07-04T10:56:28.088Z,98543.77
2018-07-04T10:59:08.372Z,98546.47
2018-07-04T11:01:51.266Z,98549.69
2018-07-04T11:04:31.591Z,98546.25
2018-07-04T11:07:12.109Z,98542.18
2018-07-04T11:09:52.351Z,98540.72
2018-07-04T11:12:32.855Z,98536.48
2018-07-04T11:15:13.259Z,98538.13
2018-07-04T11:17:53.521Z,98537.87
2018-07-04T11:20:34.149Z,98540.69
2018-07-04T11:23:14.529Z,98540.34
2018-07-04T11:25:54.989Z,98531.73
2018-07-04T11:28:35.353Z,98528.01
2018-07-04T11:31:15.655Z,98534.31
2018-07-04T11:33:56.004Z,98534.00
2018-07-04T11:36:36.245Z,98520.32
2018-07-04T11:39:16.781Z,98520.88
2018-07-04T11:41:57.257Z,98512.29
2018-07-04T11:44:40.024Z,98516.53
2018-07-04T11:47:08.072Z,98513.94
2018-07-04T11:49:36.044Z,98511.02
2018-07-04T11:52:03.942Z,98505.29
2018-07-04T11:54:31.922Z,98499.91
2018-07-04T11:56:59.922Z,98505.07
2018-07-04T11:59:27.785Z,98496.59
2018-07-04T12:01:55.737Z,98498.55
2018-07-04T12:04:36.019Z,98488.91
2018-07-04T12:07:06.851Z,98488.95
2018-07-04T12:09:39.282Z,98500.29
2018-07-04T12:12:07.378Z,98491.63
2018-07-04T12:14:35.287Z,98488.52
2018-07-04T12:17:03.213Z,98484.00
2018-07-04T12:19:31.165Z,98480.81
2018-07-04T12:21:59.060Z,98485.69
2018-07-04T12:24:27.030Z,98485.55
2018-07-04T12:26:54.986Z,98474.94
2018-07-04T12:29:22.902Z,98486.45
2018-07-04T12:31:50.870Z,98487.37
2018-07-04T12:34:18.832Z,98488.49
2018-07-04T12:36:46.730Z,98487.55
2018-07-04T12:39:14.829Z,98481.61
2018-07-04T12:41:43.049Z,98483.30
2018-07-04T12:44:10.997Z,98482.95
2018-07-04T12:46:38.998Z,98485.30
2018-07-04T12:49:06.967Z,98479.72
2018-07-04T12:51:35.820Z,98479.45
2018-07-04T12:54:09.149Z,98481.80
2018-07-04T12:56:49.534Z,98477.94
2018-07-04T12:59:29.726Z,98470.75
2018-07-04T13:02:09.913Z,98472.79
2018-07-04T13:04:50.245Z,98471.33
2018-07-04T13:07:30.437Z,98469.81
2018-07-04T13:10:10.772Z,98463.30
2018-07-04T13:12:50.959Z,98465.64
2018-07-04T13:15:31.281Z,98463.95
2018-07-04T13:18:11.585Z,98457.01
2018-07-04T13:20:51.921Z,98461.28
2018-07-04T13:23:32.499Z,98464.04
2018-07-04T13:26:13.039Z,98454.18
2018-07-04T13:28:53.454Z,98457.73
2018-07-04T13:31:33.816Z,98456.57
2018-07-04T13:34:14.158Z,98451.24
2018-07-04T13:36:54.350Z,98448.53
2018-07-04T13:39:34.592Z,98448.92
2018-07-04T13:42:14.784Z,98448.16
2018-07-04T13:44:55.182Z,98447.91
2018-07-04T13:47:35.466Z,98451.24
2018-07-04T13:50:17.245Z,98450.78
2018-07-04T13:52:57.751Z,98403.38
2018-07-04T13:55:37.975Z,98447.11
2018-07-04T13:58:18.402Z,98458.02
2018-07-04T14:00:58.696Z,98444.11
2018-07-04T14:03:39.049Z,98444.00
2018-07-04T14:06:19.330Z,98435.83
2018-07-04T14:08:59.783Z,98445.25
2018-07-04T14:11:40.058Z,98443.20
2018-07-04T14:14:20.537Z,98440.31
2018-07-04T14:17:00.977Z,98440.93
2018-07-04T14:19:41.463Z,98442.30
2018-07-04T14:22:21.802Z,98436.19
2018-07-04T14:25:02.077Z,98446.02
2018-07-04T14:27:42.478Z,98434.58
2018-07-04T14:30:22.693Z,98430.36
2018-07-04T14:33:03.061Z,98427.52
2018-07-04T14:35:43.621Z,98428.70
2018-07-04T14:38:24.027Z,98420.88
2018-07-04T14:41:04.373Z,98418.53
2018-07-04T14:43:44.687Z,98426.57
2018-07-04T14:46:25.142Z,98415.83
2018-07-04T14:49:05.337Z,98410.52
2018-07-04T14:51:45.675Z,98411.09
2018-07-04T14:54:29.656Z,98404.98
2018-07-04T14:57:10.126Z,98402.63
2018-07-04T14:59:50.366Z,98399.83
2018-07-04T15:02:30.969Z,98400.61
2018-07-04T15:05:11.299Z,98396.00
2018-07-04T15:07:51.819Z,98398.36
2018-07-04T15:10:32.069Z,98399.33
2018-07-04T15:13:12.390Z,98392.80
2018-07-04T15:15:52.684Z,98393.73
2018-07-04T15:18:32.749Z,98392.48
2018-07-04T15:21:13.091Z,98390.13
2018-07-04T15:23:53.829Z,98382.45
2018-07-04T15:26:34.161Z,98390.59
2018-07-04T15:29:14.461Z,98376.45
2018-07-04T15:31:54.748Z,98378.65
2018-07-04T15:34:35.413Z,98379.67
2018-07-04T15:37:15.671Z,98379.14
2018-07-04T15:39:56.161Z,98378.65
2018-07-04T15:42:36.574Z,98374.94
2018-07-04T15:45:16.903Z,98367.67
2018-07-04T15:47:57.241Z,98364.11
2018-07-04T15:50:37.601Z,98370.99
2018-07-04T15:53:17.997Z,98369.97
2018-07-04T15:55:58.223Z,98367.60
2018-07-04T15:58:38.433Z,98366.61
2018-07-04T16:01:18.693Z,98357.76
2018-07-04T16:03:59.073Z,98356.78
2018-07-04T16:06:39.564Z,98291.50
2018-07-04T16:09:19.842Z,98352.98
2018-07-04T16:12:00.098Z,98350.25
2018-07-04T16:14:40.550Z,98353.39
2018-07-04T16:17:20.872Z,98346.11
2018-07-04T16:20:01.099Z,98343.17
2018-07-04T16:22:41.537Z,98344.92
2018-07-04T16:25:21.952Z,98346.03
2018-07-04T16:28:02.292Z,98353.28
2018-07-04T16:30:42.549Z,98351.70
2018-07-04T16:33:22.949Z,98351.50
2018-07-04T16:36:03.337Z,98349.67
2018-07-04T16:38:43.823Z,98352.41
2018-07-04T16:41:24.189Z,98343.47
2018-07-04T16:44:04.643Z,98341.66
2018-07-04T16:46:44.839Z,98343.28
2018-07-04T16:49:25.045Z,98342.86
2018-07-04T16:52:05.305Z,98348.89
2018-07-04T16:54:45.483Z,98344.91
2018-07-04T16:57:25.684Z,98346.30
2018-07-04T17:00:06.061Z,98349.96
2018-07-04T17:02:46.609Z,98352.31
2018-07-04T17:05:27.017Z,98351.81
2018-07-04T17:08:07.371Z,98359.81
2018-07-04T17:10:47.678Z,98357.60
2018-07-04T17:13:28.073Z,98354.17
2018-07-04T17:16:08.480Z,98357.02
2018-07-04T17:18:48.777Z,98350.45
2018-07-04T17:21:29.097Z,98348.86
2018-07-04T17:24:09.537Z,98349.57
2018-07-04T17:26:49.910Z,98350.90
2018-07-04T17:29:30.270Z,98351.64
2018-07-04T17:32:10.354Z,98350.76
2018-07-04T17:34:50.536Z,98351.25
2018-07-04T17:37:30.825Z,98356.64
2018-07-04T17:40:10.967Z,98354.13
2018-07-04T17:42:51.505Z,98360.30
2018-07-04T17:45:31.841Z,98359.11
2018-07-04T17:48:12.458Z,98362.03
2018-07-04T17:50:52.609Z,98351.66
2018-07-04T17:53:32.871Z,98350.50
2018-07-04T17:56:12.948Z,98351.05
2018-07-04T17:58:53.372Z,98348.80
2018-07-04T18:01:33.585Z,98349.63
2018-07-04T18:04:15.607Z,98352.94
2018-07-04T18:06:55.823Z,98353.95
2018-07-04T18:09:36.379Z,98358.70
2018-07-04T18:12:16.832Z,98348.92
2018-07-04T18:14:57.346Z,98346.20
2018-07-04T18:17:37.721Z,98346.81
2018-07-04T18:20:18.060Z,98348.45
2018-07-04T18:22:58.529Z,98349.78
2018-07-04T18:25:39.183Z,98348.44
2018-07-04T18:28:19.683Z,98336.46
2018-07-04T18:31:00.023Z,98355.73
2018-07-04T18:33:40.373Z,98362.78
2018-07-04T18:36:20.877Z,98361.42
2018-07-04T18:39:01.351Z,98359.09
2018-07-04T18:41:41.729Z,98361.08
2018-07-04T18:44:22.053Z,98368.55
2018-07-04T18:47:02.442Z,98368.73
2018-07-04T18:49:42.610Z,98366.52
2018-07-04T18:52:22.751Z,98372.55
2018-07-04T18:55:03.037Z,98368.38
2018-07-04T18:57:43.419Z,98367.04
2018-07-04T19:00:23.867Z,98365.48
2018-07-04T19:03:04.300Z,98368.89
2018-07-04T19:05:44.685Z,98373.23
2018-07-04T19:08:25.093Z,98373.70
2018-07-04T19:11:05.387Z,98372.09
2018-07-04T19:13:45.844Z,98374.34
2018-07-04T19:16:26.107Z,98374.69
2018-07-04T19:19:06.564Z,98378.88
2018-07-04T19:21:46.874Z,98375.47
2018-07-04T19:24:27.227Z,98388.62
2018-07-04T19:27:07.586Z,98384.31
2018-07-04T19:29:47.900Z,98391.91
2018-07-04T19:32:28.176Z,98388.36
2018-07-04T19:35:08.544Z,98392.42
2018-07-04T19:37:48.850Z,98391.39
2018-07-04T19:40:29.338Z,98404.14
2018-07-04T19:43:09.623Z,98409.80
2018-07-04T19:45:50.190Z,98414.52
2018-07-04T19:48:30.569Z,98413.48
2018-07-04T19:51:10.825Z,98416.97
2018-07-04T19:53:51.080Z,98421.02
2018-07-04T19:56:31.506Z,98422.58
2018-07-04T19:59:11.983Z,98428.89
2018-07-04T20:01:52.224Z,98428.39
2018-07-04T20:04:32.600Z,98426.74
2018-07-04T20:07:12.965Z,98434.89
2018-07-04T20:09:53.437Z,98436.20
2018-07-04T20:12:33.717Z,98430.93
2018-07-04T20:15:14.029Z,98437.13
2018-07-04T20:17:55.229Z,98433.30
2018-07-04T20:20:35.695Z,98434.05
2018-07-04T20:23:16.201Z,98431.77
2018-07-04T20:25:56.503Z,98429.16
2018-07-04T20:28:36.877Z,98427.95
2018-07-04T20:31:17.155Z,98429.29
2018-07-04T20:33:57.531Z,98426.27
2018-07-04T20:36:37.615Z,98429.58
2018-07-04T20:39:17.947Z,98422.51
2018-07-04T20:41:58.369Z,98416.30
2018-07-04T20:44:39.006Z,98424.63
2018-07-04T20:47:19.470Z,98423.18
2018-07-04T20:49:59.635Z,98428.70
2018-07-04T20:52:40.206Z,98427.98
2018-07-04T20:55:20.450Z,98431.94
2018-07-04T20:58:00.650Z,98429.36
2018-07-04T21:00:41.025Z,98430.59
2018-07-04T21:03:22.046Z,98430.27
2018-07-04T21:06:02.513Z,98430.91
2018-07-04T21:08:42.790Z,98437.78
2018-07-04T21:11:23.015Z,98433.89
2018-07-04T21:14:03.517Z,98445.13
2018-07-04T21:16:45.112Z,98438.13
2018-07-04T21:19:25.560Z,98435.42
2018-07-04T21:22:05.735Z,98446.73
2018-07-04T21:24:46.027Z,98447.55
2018-07-04T21:27:26.401Z,98436.99
2018-07-04T21:30:06.779Z,98442.28
2018-07-04T21:32:47.012Z,98443.73
2018-07-04T21:35:27.261Z,98441.41
2018-07-04T21:38:07.629Z,98444.45
2018-07-04T21:40:47.843Z,98454.42
2018-07-04T21:43:28.112Z,98454.80
2018-07-04T21:46:08.488Z,98450.90
2018-07-04T21:48:49.825Z,98462.63
2018-07-04T21:51:30.189Z,98458.91
2018-07-04T21:54:10.496Z,98457.09
2018-07-04T21:56:51.106Z,98463.06
2018-07-04T21:59:31.802Z,98462.59
2018-07-04T22:02:12.176Z,98464.50
2018-07-04T22:04:56.498Z,98466.41
2018-07-04T22:07:36.809Z,98474.06
2018-07-04T22:10:17.266Z,98469.53
2018-07-04T22:12:57.481Z,98470.08
2018-07-04T22:15:37.739Z,98481.25
2018-07-04T22:18:18.177Z,98478.29
2018-07-04T22:20:58.259Z,98469.69
2018-07-04T22:23:38.732Z,98474.38
2018-07-04T22:26:18.945Z,98476.92
2018-07-04T22:28:59.385Z,98474.54
2018-07-04T22:31:39.718Z,98472.05
2018-07-04T22:34:20.017Z,98466.16
2018-07-04T22:37:00.565Z,98467.52
2018-07-04T22:39:45.189Z,98465.35
2018-07-04T22:42:25.493Z,98462.97
2018-07-04T22:45:06.592Z,98466.23
2018-07-04T22:47:47.048Z,98464.33
2018-07-04T22:50:27.950Z,98463.44
2018-07-04T22:53:08.391Z,98464.25
2018-07-04T22:55:48.510Z,98463.77
2018-07-04T22:58:28.824Z,98450.77
2018-07-04T23:01:09.074Z,98456.75
2018-07-04T23:03:49.528Z,98450.05
2018-07-04T23:06:29.969Z,98442.80
2018-07-04T23:09:10.388Z,98439.36
2018-07-04T23:11:50.721Z,98440.80
2018-07-04T23:14:31.155Z,98439.02
2018-07-04T23:17:11.528Z,98432.39
2018-07-04T23:19:52.005Z,98429.50
2018-07-04T23:22:32.501Z,98426.07
2018-07-04T23:25:12.977Z,98423.44
2018-07-04T23:27:53.279Z,98429.48
2018-07-04T23:30:33.537Z,98426.05
2018-07-04T23:33:13.797Z,98420.78
2018-07-04T23:35:54.134Z,98419.58
2018-07-04T23:38:34.477Z,98420.75
2018-07-04T23:41:14.728Z,98417.89
2018-07-04T23:43:54.957Z,98421.23
2018-07-04T23:46:35.349Z,98424.05
2018-07-04T23:49:15.623Z,98424.17
2018-07-04T23:51:56.030Z,98422.95
2018-07-04T23:54:36.427Z,98424.70
2018-07-04T23:57:16.733Z,98428.59
2018-07-04T23:59:56.905Z,98420.06
